MSC Rossella — 3FFA6 — position and weather

sailwx.info

Track history (hours):
 
Tides and Currents Weather Stations Pressure Air Temp Water Temp Dewpoint Dewpoint Depression Visibility Wind Speed Wind Dir Waves Ship Positions

MSC Rossella

Last reported at 2017-Nov-20 00:30 UTC. Time now 2017-Nov-21 17:28 UTC.
Position N 49°28' E 000°09'.

Length 243 m; draft 11.8 m.

Type: Cargo ship. MMSI: 356864000.

Date/timePositionNaut miles runAvg speedWind from/ knotsBaromVisibWave heightAir tempDewpointWater temp
2017-Nov-20 00:30N 49°28' E 000°09'0 0.0
2017-Nov-20 00:00N 49°28' E 000°09'0 0.0
2017-Nov-19 23:30N 49°28' E 000°09'0 0.0
2017-Nov-19 23:00N 49°28' E 000°09'0 0.0
2017-Nov-19 22:30N 49°28' E 000°09'0 0.0
2017-Nov-19 22:00N 49°28' E 000°09'0 0.0
2017-Nov-19 21:30N 49°28' E 000°09'0 0.0
2017-Nov-19 21:00N 49°28' E 000°09'0 0.0
2017-Nov-19 20:30N 49°28' E 000°09'0 0.0
2017-Nov-19 20:00N 49°28' E 000°09'0 0.0
2017-Nov-19 19:30N 49°28' E 000°09'0 0.0
2017-Nov-19 19:00N 49°28' E 000°09'0 0.0
2017-Nov-19 18:30N 49°28' E 000°09'0 0.0
2017-Nov-19 18:00N 49°28' E 000°09'1 1.5
2017-Nov-19 17:30N 49°28' E 000°08'511.0
2017-Nov-19 17:00N 49°30' E 000°00'611.1
2017-Nov-19 16:30N 49°32' W 000°08'3 5.4
2017-Nov-19 16:00N 49°34' W 000°08'0 0.4
2017-Nov-19 15:28N 49°35' W 000°08'0 0.0
2017-Nov-19 15:01N 49°35' W 000°08'0 0.0
2017-Nov-19 14:28N 49°35' W 000°08'0 0.0
2017-Nov-19 13:58N 49°35' W 000°08'0 0.0
2017-Nov-19 13:31N 49°35' W 000°08'0 0.1
2017-Nov-19 12:57N 49°34' W 000°08'0 0.1
2017-Nov-19 12:28N 49°34' W 000°08'0 0.1
2017-Nov-19 11:58N 49°34' W 000°08'0 0.1
2017-Nov-19 11:31N 49°34' W 000°08'0 0.3
2017-Nov-19 11:01N 49°35' W 000°08'2 3.4
2017-Nov-19 10:30N 49°35' W 000°11'713.1
2017-Nov-19 10:00N 49°42' W 000°10'815.0
2017-Nov-19 09:31N 49°49' W 000°09'715.0
2017-Nov-19 09:00N 49°57' W 000°09'815.1
2017-Nov-19 08:30N 50°04' W 000°08'2015.5
2017-Nov-19 07:11N 50°24' W 000°06'314.7
2017-Nov-19 07:00N 50°27' W 000°03'815.5
2017-Nov-19 06:30N 50°29' E 000°08'816.2
2017-Nov-19 06:00N 50°32' E 000°20'816.8
2017-Nov-19 05:30N 50°35' E 000°32'917.2
2017-Nov-19 05:01N 50°41' E 000°43'917.4
2017-Nov-19 04:30N 50°46' E 000°53'817.0
2017-Nov-19 04:00N 50°52' E 001°03'816.4
2017-Nov-19 03:30N 50°57' E 001°14'815.8
2017-Nov-19 03:00N 51°02' E 001°23'714.9
2017-Nov-19 02:30N 51°07' E 001°32'713.7
2017-Nov-19 02:00N 51°12' E 001°40'714.0
2017-Nov-19 01:30N 51°18' E 001°43'714.1
2017-Nov-19 01:00N 51°25' E 001°45'714.8
2017-Nov-19 00:30N 51°33' E 001°45'815.6
2017-Nov-19 00:00N 51°40' E 001°45'815.8
2017-Nov-18 23:30N 51°48' E 001°44'612.2
2017-Nov-18 23:01N 51°51' E 001°35'611.3
2017-Nov-18 22:31N 51°46' E 001°31'815.3
2017-Nov-18 22:00N 51°40' E 001°24'815.0
2017-Nov-18 21:30N 51°35' E 001°15'714.9
2017-Nov-18 21:01N 51°31' E 001°05'814.0
2017-Nov-18 20:27N 51°29' E 000°52'614.8
2017-Nov-18 20:00N 51°30' E 000°42'713.4
2017-Nov-18 19:31N 51°30' E 000°31'1 1.2
2017-Nov-18 19:01N 51°30' E 000°30'0 0.0
2017-Nov-18 18:31N 51°30' E 000°30'0 0.0
2017-Nov-18 18:00N 51°30' E 000°30'0 0.0
2017-Nov-18 17:31N 51°30' E 000°30'0 0.0
2017-Nov-18 17:00N 51°30' E 000°30'0 0.0
2017-Nov-18 16:31N 51°30' E 000°30'0 0.0
2017-Nov-18 16:00N 51°30' E 000°30'0 0.0
2017-Nov-18 15:31N 51°30' E 000°30'0 0.0
2017-Nov-18 15:01N 51°30' E 000°30'0 0.0
2017-Nov-18 14:31N 51°30' E 000°30'0 0.0
2017-Nov-18 14:00N 51°30' E 000°30'0 0.0
2017-Nov-18 13:01N 51°30' E 000°30'0 2.2
2017-Nov-18 13:00N 51°30' E 000°30'0 0.0
2017-Nov-18 12:30N 51°30' E 000°30'0 0.0
2017-Nov-18 12:00N 51°30' E 000°30'0 0.0
2017-Nov-18 11:31N 51°30' E 000°30'0 0.0
2017-Nov-18 11:01N 51°30' E 000°30'0 0.0
2017-Nov-18 10:31N 51°30' E 000°30'0 0.0
2017-Nov-18 10:01N 51°30' E 000°30'0 0.1
2017-Nov-18 09:30N 51°30' E 000°30'2 4.1
2017-Nov-18 09:00N 51°30' E 000°33'611.4
2017-Nov-18 08:30N 51°30' E 000°43'714.2
2017-Nov-18 08:01N 51°29' E 000°54'613.0
2017-Nov-18 07:30N 51°31' E 001°04'815.6
2017-Nov-18 07:00N 51°35' E 001°15'917.5
2017-Nov-18 06:30N 51°40' E 001°26'917.1
2017-Nov-18 06:00N 51°47' E 001°34'611.5
2017-Nov-18 05:30N 51°51' E 001°40'4 8.0
2017-Nov-18 05:00N 51°53' E 001°46'1 1.3
2017-Nov-18 04:30N 51°53' E 001°47'3 5.5
2017-Nov-18 04:00N 51°50' E 001°47'4 7.3
2017-Nov-18 03:31N 51°47' E 001°48'6 7.2
2017-Nov-18 02:45N 51°41' E 001°49'2 7.3
2017-Nov-18 02:30N 51°39' E 001°50'3 6.6
2017-Nov-18 02:00N 51°36' E 001°52'1 2.7
2017-Nov-18 01:31N 51°35' E 001°50'3 5.5
2017-Nov-18 01:00N 51°38' E 001°50'2 3.1
2017-Nov-18 00:30N 51°39' E 001°49'3 6.8
2017-Nov-18 00:00N 51°36' E 001°51'4 7.9
2017-Nov-17 23:30N 51°32' E 001°53'4 8.9
2017-Nov-17 23:00N 51°28' E 001°56'510.9
2017-Nov-17 22:31N 51°25' E 002°03'714.3
2017-Nov-17 22:00N 51°21' E 002°13'914.5
2017-Nov-17 21:24N 51°22' E 002°27'1214.6
2017-Nov-17 20:35N 51°24' E 002°46'111.2
2017-Nov-17 20:30N 51°25' E 002°47'816.4
2017-Nov-17 20:00N 51°25' E 003°00'917.1
2017-Nov-17 19:30N 51°25' E 003°14'917.5
2017-Nov-17 19:00N 51°25' E 003°28'611.5
2017-Nov-17 18:30N 51°26' E 003°37'510.3
2017-Nov-17 18:00N 51°23' E 003°43'714.7
2017-Nov-17 17:30N 51°22' E 003°55'510.9
2017-Nov-17 17:00N 51°25' E 004°02'611.4
2017-Nov-17 16:30N 51°23' E 004°10'510.1
2017-Nov-17 16:00N 51°20' E 004°16'2 4.7
2017-Nov-17 15:30N 51°18' E 004°16'0 0.8
2017-Nov-17 15:00N 51°18' E 004°16'0 0.0
2017-Nov-17 14:30N 51°18' E 004°16'0 0.0
2017-Nov-17 14:00N 51°18' E 004°15'0 0.0
2017-Nov-17 13:30N 51°18' E 004°16'0 0.0
2017-Nov-17 12:48N 51°18' E 004°15'0 0.0
2017-Nov-17 12:30N 51°18' E 004°16'0 0.0
2017-Nov-17 12:00N 51°18' E 004°16'0 0.0
2017-Nov-17 11:30N 51°18' E 004°15'0 0.0
2017-Nov-17 10:57N 51°18' E 004°15'0 0.0
2017-Nov-17 10:30N 51°18' E 004°15'0 0.0
2017-Nov-17 09:54N 51°18' E 004°16'0 0.0
2017-Nov-17 09:30N 51°18' E 004°15'0 0.0
2017-Nov-17 08:57N 51°18' E 004°16'0 0.0
2017-Nov-17 08:30N 51°18' E 004°16'0 0.0
2017-Nov-17 07:57N 51°18' E 004°15'0 0.0
2017-Nov-17 07:30N 51°18' E 004°16'0 0.0
2017-Nov-17 07:00N 51°18' E 004°16'0 0.0
2017-Nov-17 06:30N 51°18' E 004°16'0 0.0
2017-Nov-17 06:00N 51°18' E 004°16'0 0.0
2017-Nov-17 05:30N 51°18' E 004°16'0 0.0
2017-Nov-17 05:00N 51°18' E 004°16'0 0.0
2017-Nov-17 04:27N 51°18' E 004°16'0 0.0
2017-Nov-17 04:00N 51°18' E 004°15'0 0.0
2017-Nov-17 03:30N 51°18' E 004°15'0 0.0
2017-Nov-17 03:00N 51°18' E 004°16'0 0.0
2017-Nov-17 02:30N 51°18' E 004°15'0 0.0
2017-Nov-17 02:00N 51°18' E 004°16'0 0.0
2017-Nov-17 01:30N 51°18' E 004°16'0 0.0
2017-Nov-17 01:00N 51°18' E 004°16'0 0.0
2017-Nov-17 00:30N 51°18' E 004°16'0 0.0
2017-Nov-17 00:00N 51°18' E 004°15'0 0.0
2017-Nov-16 23:27N 51°18' E 004°16'0 0.0
2017-Nov-16 22:57N 51°18' E 004°16'0 0.0
2017-Nov-16 22:30N 51°18' E 004°16'0 0.0
2017-Nov-16 22:00N 51°18' E 004°16'0 0.0
2017-Nov-16 21:30N 51°18' E 004°15'0 0.0
2017-Nov-16 20:57N 51°18' E 004°16'0 0.0
2017-Nov-16 20:28N 51°18' E 004°15'0 0.0
2017-Nov-16 19:55N 51°18' E 004°15'0 0.0
2017-Nov-16 19:25N 51°18' E 004°16'0 0.0
2017-Nov-16 18:58N 51°18' E 004°16'0 0.0
2017-Nov-16 18:28N 51°18' E 004°15'0 0.0
2017-Nov-16 17:58N 51°18' E 004°15'0 0.0
2017-Nov-16 17:28N 51°18' E 004°16'0 0.0
2017-Nov-16 16:55N 51°18' E 004°16'0 0.0
2017-Nov-16 16:28N 51°18' E 004°15'0 0.0
2017-Nov-16 15:58N 51°18' E 004°15'0 0.0
2017-Nov-16 15:28N 51°18' E 004°15'0 0.0
2017-Nov-16 14:58N 51°18' E 004°16'0 0.0
2017-Nov-16 14:28N 51°18' E 004°15'0 0.0
2017-Nov-16 13:58N 51°18' E 004°15'0 0.0
2017-Nov-16 13:28N 51°18' E 004°16'0 0.0
2017-Nov-16 12:58N 51°18' E 004°16'0 0.0
2017-Nov-16 12:28N 51°18' E 004°15'0 0.2
2017-Nov-16 12:00N 51°18' E 004°16'2 3.8
2017-Nov-16 11:30N 51°19' E 004°16'4 8.0
2017-Nov-16 11:00N 51°23' E 004°13'611.6
2017-Nov-16 10:30N 51°22' E 004°04'4 8.9
2017-Nov-16 10:00N 51°25' E 003°58'713.5
2017-Nov-16 09:30N 51°21' E 003°50'612.8
2017-Nov-16 09:00N 51°25' E 003°42'5 9.8
2017-Nov-16 08:31N 51°25' E 003°34'5 9.9
2017-Nov-16 08:01N 51°25' E 003°27'611.8
2017-Nov-16 07:30N 51°24' E 003°17'511.0
2017-Nov-16 07:01N 51°24' E 003°08'714.4
2017-Nov-16 06:31N 51°25' E 002°57'713.6
2017-Nov-16 06:01N 51°24' E 002°46'4 6.8
2017-Nov-16 05:21N 51°25' E 002°39'0 0.4
2017-Nov-16 04:59N 51°26' E 002°39'0 0.1
2017-Nov-16 04:17N 51°26' E 002°39'0 0.0
2017-Nov-16 03:50N 51°26' E 002°39'0 0.0
2017-Nov-16 03:29N 51°26' E 002°39'0 0.0
2017-Nov-16 02:59N 51°26' E 002°39'0 0.0
2017-Nov-16 02:29N 51°26' E 002°39'0 0.0
2017-Nov-16 01:59N 51°26' E 002°39'0 0.0
2017-Nov-16 01:26N 51°26' E 002°39'0 0.0
2017-Nov-16 00:56N 51°26' E 002°39'0 0.0
2017-Nov-16 00:29N 51°26' E 002°39'0 0.0
2017-Nov-15 23:56N 51°26' E 002°39'0 0.0
2017-Nov-15 23:29N 51°26' E 002°39'0 0.0
2017-Nov-15 22:59N 51°26' E 002°39'0 0.0
2017-Nov-15 22:26N 51°26' E 002°39'0 0.0
2017-Nov-15 21:53N 51°26' E 002°39'0 0.0
2017-Nov-15 21:29N 51°26' E 002°39'0 0.1
2017-Nov-15 20:56N 51°26' E 002°39'0 0.3
2017-Nov-15 20:14N 51°25' E 002°39'0 0.0
2017-Nov-15 19:47N 51°25' E 002°39'0 0.0
2017-Nov-15 19:20N 51°25' E 002°39'0 0.0
2017-Nov-15 18:56N 51°25' E 002°39'0 0.0
2017-Nov-15 18:29N 51°25' E 002°39'0 0.1
2017-Nov-15 15:59N 51°26' E 002°39'0 0.2
2017-Nov-15 15:29N 51°26' E 002°39'0 0.1
2017-Nov-15 14:59N 51°26' E 002°39'0 0.1
2017-Nov-15 14:29N 51°26' E 002°39'0 0.0
2017-Nov-15 13:59N 51°26' E 002°39'0 0.0
2017-Nov-15 13:30N 51°26' E 002°39'0 0.2
2017-Nov-15 12:57N 51°26' E 002°39'2 3.4
2017-Nov-15 12:27N 51°25' E 002°42'510.3
2017-Nov-15 11:59N 51°22' E 002°36'612.7
2017-Nov-15 11:30N 51°21' E 002°27'915.9
2017-Nov-15 10:55N 51°17' E 002°14'717.3
2017-Nov-15 10:30N 51°13' E 002°04'917.4
2017-Nov-15 10:00N 51°09' E 001°52'917.8
2017-Nov-15 09:30N 51°03' E 001°42'917.8
2017-Nov-15 09:00N 50°56' E 001°32'6012.8
2017-Nov-15 04:22N 50°20' E 000°17'4 9.6
2017-Nov-15 03:56N 50°19' E 000°11'5 9.1
2017-Nov-15 03:26N 50°18' E 000°04'4 8.7
2017-Nov-15 03:00N 50°17' W 000°02'4 8.3
2017-Nov-15 02:30N 50°16' W 000°08'4 8.0
2017-Nov-15 02:00N 50°15' W 000°14'4 7.8
2017-Nov-15 01:31N 50°14' W 000°20'29 7.3
2017-Nov-14 21:29N 50°07' W 001°04'4 8.3
2017-Nov-14 21:00N 50°06' W 001°10'4 8.9
2017-Nov-14 20:30N 50°05' W 001°17'5 9.6
2017-Nov-14 20:00N 50°03' W 001°24'510.2
2017-Nov-14 19:31N 50°02' W 001°32'611.0
2017-Nov-14 19:00N 50°01' W 001°40'611.3
2017-Nov-14 18:30N 49°59' W 001°49'611.7
2017-Nov-14 18:00N 49°58' W 001°58'612.0
2017-Nov-14 17:29N 49°57' W 002°07'612.0
2017-Nov-14 16:59N 49°55' W 002°16'2311.2
2017-Nov-14 14:54N 49°49' W 002°51'1911.4
2017-Nov-14 13:13N 49°39' W 003°17'1011.1
2017-Nov-14 12:17N 49°35' W 003°31'3210.5
2017-Nov-14 09:16N 49°20' W 004°14'710.2
2017-Nov-14 08:35N 49°17' W 004°23'310.2
2017-Nov-14 08:18N 49°15' W 004°27'410.3
2017-Nov-14 07:55N 49°13' W 004°32'510.2
2017-Nov-14 07:26N 49°10' W 004°38'713.6
2017-Nov-14 06:55N 49°06' W 004°48'816.4
2017-Nov-14 06:26N 49°02' W 004°57'716.3
2017-Nov-14 06:00N 48°59' W 005°07'1616.5
2017-Nov-14 05:02N 48°51' W 005°28'616.6
2017-Nov-14 04:40N 48°47' W 005°35'416.8
2017-Nov-14 04:25N 48°44' W 005°39'716.8
2017-Nov-14 04:00N 48°38' W 005°44'3417.0
2017-Nov-14 01:59N 48°07' W 006°08'817.4
2017-Nov-14 01:30N 47°60' W 006°14'917.7
2017-Nov-14 01:00N 47°52' W 006°20'917.8
2017-Nov-14 00:31N 47°44' W 006°26'917.8
2017-Nov-13 23:59N 47°36' W 006°32'918.0
2017-Nov-13 23:29N 47°28' W 006°39'1117.6
2017-Nov-13 22:52N 47°18' W 006°46'817.3
2017-Nov-13 22:23N 47°11' W 006°52'817.4
2017-Nov-13 21:57N 47°04' W 006°56'69116.4
2017-Nov-12 03:49N 36°17' W 012°23'43715.6
2017-Nov-10 23:47N 29°20' W 014°55'414.5
2017-Nov-10 23:30N 29°16' W 014°56'914.5
2017-Nov-10 22:53N 29°07' W 014°59'514.4
2017-Nov-10 22:30N 29°02' W 015°01'714.3
2017-Nov-10 22:00N 28°55' W 015°03'714.3
2017-Nov-10 21:29N 28°48' W 015°06'714.7
2017-Nov-10 21:01N 28°41' W 015°08'714.6
2017-Nov-10 20:30N 28°34' W 015°11'815.3
2017-Nov-10 20:00N 28°27' W 015°13'815.9
2017-Nov-10 19:30N 28°19' W 015°16'816.0
2017-Nov-10 19:00N 28°12' W 015°18'510.8
2017-Nov-10 18:30N 28°07' W 015°22'2 4.8
2017-Nov-10 18:00N 28°08' W 015°25'0 0.1
2017-Nov-10 17:27N 28°08' W 015°25'0 0.0
2017-Nov-10 16:57N 28°08' W 015°25'0 0.0
2017-Nov-10 16:30N 28°08' W 015°25'0 0.0
2017-Nov-10 16:00N 28°08' W 015°25'0 0.0
2017-Nov-10 15:30N 28°08' W 015°25'0 0.0
2017-Nov-10 15:00N 28°08' W 015°25'0 0.0
2017-Nov-10 14:18N 28°08' W 015°25'0 0.0
2017-Nov-10 13:57N 28°08' W 015°25'0 0.0
2017-Nov-10 13:18N 28°08' W 015°25'0 0.0
2017-Nov-10 13:00N 28°08' W 015°25'0 0.0
2017-Nov-10 12:30N 28°08' W 015°25'0 0.0
2017-Nov-10 12:00N 28°08' W 015°25'0 0.0
2017-Nov-10 11:30N 28°08' W 015°25'0 0.0
2017-Nov-10 11:00N 28°08' W 015°25'0 0.0
2017-Nov-10 10:21N 28°08' W 015°25'0 0.0
2017-Nov-10 09:51N 28°08' W 015°25'0 0.0
2017-Nov-10 09:21N 28°08' W 015°25'0 0.0
2017-Nov-10 08:54N 28°08' W 015°25'0 0.0
2017-Nov-10 08:24N 28°08' W 015°25'0 0.0
2017-Nov-10 07:51N 28°08' W 015°25'0 0.0
2017-Nov-10 07:24N 28°08' W 015°25'0 0.0
2017-Nov-10 06:54N 28°08' W 015°25'0 0.0
2017-Nov-10 06:21N 28°08' W 015°25'0 0.0
2017-Nov-10 05:54N 28°08' W 015°25'0 0.0
2017-Nov-10 05:24N 28°08' W 015°25'0 0.0
2017-Nov-10 04:57N 28°08' W 015°25'0 0.0
2017-Nov-10 04:27N 28°08' W 015°25'0 0.0
2017-Nov-10 03:57N 28°08' W 015°25'0 0.0
2017-Nov-10 03:27N 28°08' W 015°25'0 0.0
2017-Nov-10 02:57N 28°08' W 015°25'0 0.0
2017-Nov-10 02:30N 28°08' W 015°25'0 0.0
2017-Nov-10 02:00N 28°08' W 015°25'0 0.0
2017-Nov-10 01:30N 28°08' W 015°25'0 0.0
2017-Nov-10 01:00N 28°08' W 015°25'0 0.0
2017-Nov-10 00:30N 28°08' W 015°25'  
Track history (hours):
 
Tides and Currents Weather Stations Pressure Air Temp Water Temp Dewpoint Dewpoint Depression Visibility Wind Speed Wind Dir Waves Ship Positions

MSC Rossella

Last reported at 2017-Nov-20 00:30 UTC. Time now 2017-Nov-21 17:28 UTC.
Position N 49°28' E 000°09'.

Length 243 m; draft 11.8 m.

Type: Cargo ship. MMSI: 356864000.

Date/timePositionNaut miles runAvg speedWind from/ knotsBaromVisibWave heightAir tempDewpointWater temp
2017-Nov-20 00:30N 49°28' E 000°09'0 0.0
2017-Nov-20 00:00N 49°28' E 000°09'0 0.0
2017-Nov-19 23:30N 49°28' E 000°09'0 0.0
2017-Nov-19 23:00N 49°28' E 000°09'0 0.0
2017-Nov-19 22:30N 49°28' E 000°09'0 0.0
2017-Nov-19 22:00N 49°28' E 000°09'0 0.0
2017-Nov-19 21:30N 49°28' E 000°09'0 0.0
2017-Nov-19 21:00N 49°28' E 000°09'0 0.0
2017-Nov-19 20:30N 49°28' E 000°09'0 0.0
2017-Nov-19 20:00N 49°28' E 000°09'0 0.0
2017-Nov-19 19:30N 49°28' E 000°09'0 0.0
2017-Nov-19 19:00N 49°28' E 000°09'0 0.0
2017-Nov-19 18:30N 49°28' E 000°09'0 0.0
2017-Nov-19 18:00N 49°28' E 000°09'1 1.5
2017-Nov-19 17:30N 49°28' E 000°08'511.0
2017-Nov-19 17:00N 49°30' E 000°00'611.1
2017-Nov-19 16:30N 49°32' W 000°08'3 5.4
2017-Nov-19 16:00N 49°34' W 000°08'0 0.4
2017-Nov-19 15:28N 49°35' W 000°08'0 0.0
2017-Nov-19 15:01N 49°35' W 000°08'0 0.0
2017-Nov-19 14:28N 49°35' W 000°08'0 0.0
2017-Nov-19 13:58N 49°35' W 000°08'0 0.0
2017-Nov-19 13:31N 49°35' W 000°08'0 0.1
2017-Nov-19 12:57N 49°34' W 000°08'0 0.1
2017-Nov-19 12:28N 49°34' W 000°08'0 0.1
2017-Nov-19 11:58N 49°34' W 000°08'0 0.1
2017-Nov-19 11:31N 49°34' W 000°08'0 0.3
2017-Nov-19 11:01N 49°35' W 000°08'2 3.4
2017-Nov-19 10:30N 49°35' W 000°11'713.1
2017-Nov-19 10:00N 49°42' W 000°10'815.0
2017-Nov-19 09:31N 49°49' W 000°09'715.0
2017-Nov-19 09:00N 49°57' W 000°09'815.1
2017-Nov-19 08:30N 50°04' W 000°08'2015.5
2017-Nov-19 07:11N 50°24' W 000°06'314.7
2017-Nov-19 07:00N 50°27' W 000°03'815.5
2017-Nov-19 06:30N 50°29' E 000°08'816.2
2017-Nov-19 06:00N 50°32' E 000°20'816.8
2017-Nov-19 05:30N 50°35' E 000°32'917.2
2017-Nov-19 05:01N 50°41' E 000°43'917.4
2017-Nov-19 04:30N 50°46' E 000°53'817.0
2017-Nov-19 04:00N 50°52' E 001°03'816.4
2017-Nov-19 03:30N 50°57' E 001°14'815.8
2017-Nov-19 03:00N 51°02' E 001°23'714.9
2017-Nov-19 02:30N 51°07' E 001°32'713.7
2017-Nov-19 02:00N 51°12' E 001°40'714.0
2017-Nov-19 01:30N 51°18' E 001°43'714.1
2017-Nov-19 01:00N 51°25' E 001°45'714.8
2017-Nov-19 00:30N 51°33' E 001°45'815.6
2017-Nov-19 00:00N 51°40' E 001°45'815.8
2017-Nov-18 23:30N 51°48' E 001°44'612.2
2017-Nov-18 23:01N 51°51' E 001°35'611.3
2017-Nov-18 22:31N 51°46' E 001°31'815.3
2017-Nov-18 22:00N 51°40' E 001°24'815.0
2017-Nov-18 21:30N 51°35' E 001°15'714.9
2017-Nov-18 21:01N 51°31' E 001°05'814.0
2017-Nov-18 20:27N 51°29' E 000°52'614.8
2017-Nov-18 20:00N 51°30' E 000°42'713.4
2017-Nov-18 19:31N 51°30' E 000°31'1 1.2
2017-Nov-18 19:01N 51°30' E 000°30'0 0.0
2017-Nov-18 18:31N 51°30' E 000°30'0 0.0
2017-Nov-18 18:00N 51°30' E 000°30'0 0.0
2017-Nov-18 17:31N 51°30' E 000°30'0 0.0
2017-Nov-18 17:00N 51°30' E 000°30'0 0.0
2017-Nov-18 16:31N 51°30' E 000°30'0 0.0
2017-Nov-18 16:00N 51°30' E 000°30'0 0.0
2017-Nov-18 15:31N 51°30' E 000°30'0 0.0
2017-Nov-18 15:01N 51°30' E 000°30'0 0.0
2017-Nov-18 14:31N 51°30' E 000°30'0 0.0
2017-Nov-18 14:00N 51°30' E 000°30'0 0.0
2017-Nov-18 13:01N 51°30' E 000°30'0 2.2
2017-Nov-18 13:00N 51°30' E 000°30'0 0.0
2017-Nov-18 12:30N 51°30' E 000°30'0 0.0
2017-Nov-18 12:00N 51°30' E 000°30'0 0.0
2017-Nov-18 11:31N 51°30' E 000°30'0 0.0
2017-Nov-18 11:01N 51°30' E 000°30'0 0.0
2017-Nov-18 10:31N 51°30' E 000°30'0 0.0
2017-Nov-18 10:01N 51°30' E 000°30'0 0.1
2017-Nov-18 09:30N 51°30' E 000°30'2 4.1
2017-Nov-18 09:00N 51°30' E 000°33'611.4
2017-Nov-18 08:30N 51°30' E 000°43'714.2
2017-Nov-18 08:01N 51°29' E 000°54'613.0
2017-Nov-18 07:30N 51°31' E 001°04'815.6
2017-Nov-18 07:00N 51°35' E 001°15'917.5
2017-Nov-18 06:30N 51°40' E 001°26'917.1
2017-Nov-18 06:00N 51°47' E 001°34'611.5
2017-Nov-18 05:30N 51°51' E 001°40'4 8.0
2017-Nov-18 05:00N 51°53' E 001°46'1 1.3
2017-Nov-18 04:30N 51°53' E 001°47'3 5.5
2017-Nov-18 04:00N 51°50' E 001°47'4 7.3
2017-Nov-18 03:31N 51°47' E 001°48'6 7.2
2017-Nov-18 02:45N 51°41' E 001°49'2 7.3
2017-Nov-18 02:30N 51°39' E 001°50'3 6.6
2017-Nov-18 02:00N 51°36' E 001°52'1 2.7
2017-Nov-18 01:31N 51°35' E 001°50'3 5.5
2017-Nov-18 01:00N 51°38' E 001°50'2 3.1
2017-Nov-18 00:30N 51°39' E 001°49'3 6.8
2017-Nov-18 00:00N 51°36' E 001°51'4 7.9
2017-Nov-17 23:30N 51°32' E 001°53'4 8.9
2017-Nov-17 23:00N 51°28' E 001°56'510.9
2017-Nov-17 22:31N 51°25' E 002°03'714.3
2017-Nov-17 22:00N 51°21' E 002°13'914.5
2017-Nov-17 21:24N 51°22' E 002°27'1214.6
2017-Nov-17 20:35N 51°24' E 002°46'111.2
2017-Nov-17 20:30N 51°25' E 002°47'816.4
2017-Nov-17 20:00N 51°25' E 003°00'917.1
2017-Nov-17 19:30N 51°25' E 003°14'917.5
2017-Nov-17 19:00N 51°25' E 003°28'611.5
2017-Nov-17 18:30N 51°26' E 003°37'510.3
2017-Nov-17 18:00N 51°23' E 003°43'714.7
2017-Nov-17 17:30N 51°22' E 003°55'510.9
2017-Nov-17 17:00N 51°25' E 004°02'611.4
2017-Nov-17 16:30N 51°23' E 004°10'510.1
2017-Nov-17 16:00N 51°20' E 004°16'2 4.7
2017-Nov-17 15:30N 51°18' E 004°16'0 0.8
2017-Nov-17 15:00N 51°18' E 004°16'0 0.0
2017-Nov-17 14:30N 51°18' E 004°16'0 0.0
2017-Nov-17 14:00N 51°18' E 004°15'0 0.0
2017-Nov-17 13:30N 51°18' E 004°16'0 0.0
2017-Nov-17 12:48N 51°18' E 004°15'0 0.0
2017-Nov-17 12:30N 51°18' E 004°16'0 0.0
2017-Nov-17 12:00N 51°18' E 004°16'0 0.0
2017-Nov-17 11:30N 51°18' E 004°15'0 0.0
2017-Nov-17 10:57N 51°18' E 004°15'0 0.0
2017-Nov-17 10:30N 51°18' E 004°15'0 0.0
2017-Nov-17 09:54N 51°18' E 004°16'0 0.0
2017-Nov-17 09:30N 51°18' E 004°15'0 0.0
2017-Nov-17 08:57N 51°18' E 004°16'0 0.0
2017-Nov-17 08:30N 51°18' E 004°16'0 0.0
2017-Nov-17 07:57N 51°18' E 004°15'0 0.0
2017-Nov-17 07:30N 51°18' E 004°16'0 0.0
2017-Nov-17 07:00N 51°18' E 004°16'0 0.0
2017-Nov-17 06:30N 51°18' E 004°16'0 0.0
2017-Nov-17 06:00N 51°18' E 004°16'0 0.0
2017-Nov-17 05:30N 51°18' E 004°16'0 0.0
2017-Nov-17 05:00N 51°18' E 004°16'0 0.0
2017-Nov-17 04:27N 51°18' E 004°16'0 0.0
2017-Nov-17 04:00N 51°18' E 004°15'0 0.0
2017-Nov-17 03:30N 51°18' E 004°15'0 0.0
2017-Nov-17 03:00N 51°18' E 004°16'0 0.0
2017-Nov-17 02:30N 51°18' E 004°15'0 0.0
2017-Nov-17 02:00N 51°18' E 004°16'0 0.0
2017-Nov-17 01:30N 51°18' E 004°16'0 0.0
2017-Nov-17 01:00N 51°18' E 004°16'0 0.0
2017-Nov-17 00:30N 51°18' E 004°16'0 0.0
2017-Nov-17 00:00N 51°18' E 004°15'0 0.0
2017-Nov-16 23:27N 51°18' E 004°16'0 0.0
2017-Nov-16 22:57N 51°18' E 004°16'0 0.0
2017-Nov-16 22:30N 51°18' E 004°16'0 0.0
2017-Nov-16 22:00N 51°18' E 004°16'0 0.0
2017-Nov-16 21:30N 51°18' E 004°15'0 0.0
2017-Nov-16 20:57N 51°18' E 004°16'0 0.0
2017-Nov-16 20:28N 51°18' E 004°15'0 0.0
2017-Nov-16 19:55N 51°18' E 004°15'0 0.0
2017-Nov-16 19:25N 51°18' E 004°16'0 0.0
2017-Nov-16 18:58N 51°18' E 004°16'0 0.0
2017-Nov-16 18:28N 51°18' E 004°15'0 0.0
2017-Nov-16 17:58N 51°18' E 004°15'0 0.0
2017-Nov-16 17:28N 51°18' E 004°16'0 0.0
2017-Nov-16 16:55N 51°18' E 004°16'0 0.0
2017-Nov-16 16:28N 51°18' E 004°15'0 0.0
2017-Nov-16 15:58N 51°18' E 004°15'0 0.0
2017-Nov-16 15:28N 51°18' E 004°15'0 0.0
2017-Nov-16 14:58N 51°18' E 004°16'0 0.0
2017-Nov-16 14:28N 51°18' E 004°15'0 0.0
2017-Nov-16 13:58N 51°18' E 004°15'0 0.0
2017-Nov-16 13:28N 51°18' E 004°16'0 0.0
2017-Nov-16 12:58N 51°18' E 004°16'0 0.0
2017-Nov-16 12:28N 51°18' E 004°15'0 0.2
2017-Nov-16 12:00N 51°18' E 004°16'2 3.8
2017-Nov-16 11:30N 51°19' E 004°16'4 8.0
2017-Nov-16 11:00N 51°23' E 004°13'611.6
2017-Nov-16 10:30N 51°22' E 004°04'4 8.9
2017-Nov-16 10:00N 51°25' E 003°58'713.5
2017-Nov-16 09:30N 51°21' E 003°50'612.8
2017-Nov-16 09:00N 51°25' E 003°42'5 9.8
2017-Nov-16 08:31N 51°25' E 003°34'5 9.9
2017-Nov-16 08:01N 51°25' E 003°27'611.8
2017-Nov-16 07:30N 51°24' E 003°17'511.0
2017-Nov-16 07:01N 51°24' E 003°08'714.4
2017-Nov-16 06:31N 51°25' E 002°57'713.6
2017-Nov-16 06:01N 51°24' E 002°46'4 6.8
2017-Nov-16 05:21N 51°25' E 002°39'0 0.4
2017-Nov-16 04:59N 51°26' E 002°39'0 0.1
2017-Nov-16 04:17N 51°26' E 002°39'0 0.0
2017-Nov-16 03:50N 51°26' E 002°39'0 0.0
2017-Nov-16 03:29N 51°26' E 002°39'0 0.0
2017-Nov-16 02:59N 51°26' E 002°39'0 0.0
2017-Nov-16 02:29N 51°26' E 002°39'0 0.0
2017-Nov-16 01:59N 51°26' E 002°39'0 0.0
2017-Nov-16 01:26N 51°26' E 002°39'0 0.0
2017-Nov-16 00:56N 51°26' E 002°39'0 0.0
2017-Nov-16 00:29N 51°26' E 002°39'0 0.0
2017-Nov-15 23:56N 51°26' E 002°39'0 0.0
2017-Nov-15 23:29N 51°26' E 002°39'0 0.0
2017-Nov-15 22:59N 51°26' E 002°39'0 0.0
2017-Nov-15 22:26N 51°26' E 002°39'0 0.0
2017-Nov-15 21:53N 51°26' E 002°39'0 0.0
2017-Nov-15 21:29N 51°26' E 002°39'0 0.1
2017-Nov-15 20:56N 51°26' E 002°39'0 0.3
2017-Nov-15 20:14N 51°25' E 002°39'0 0.0
2017-Nov-15 19:47N 51°25' E 002°39'0 0.0
2017-Nov-15 19:20N 51°25' E 002°39'0 0.0
2017-Nov-15 18:56N 51°25' E 002°39'0 0.0
2017-Nov-15 18:29N 51°25' E 002°39'0 0.1
2017-Nov-15 15:59N 51°26' E 002°39'0 0.2
2017-Nov-15 15:29N 51°26' E 002°39'0 0.1
2017-Nov-15 14:59N 51°26' E 002°39'0 0.1
2017-Nov-15 14:29N 51°26' E 002°39'0 0.0
2017-Nov-15 13:59N 51°26' E 002°39'0 0.0
2017-Nov-15 13:30N 51°26' E 002°39'0 0.2
2017-Nov-15 12:57N 51°26' E 002°39'2 3.4
2017-Nov-15 12:27N 51°25' E 002°42'510.3
2017-Nov-15 11:59N 51°22' E 002°36'612.7
2017-Nov-15 11:30N 51°21' E 002°27'915.9
2017-Nov-15 10:55N 51°17' E 002°14'717.3
2017-Nov-15 10:30N 51°13' E 002°04'917.4
2017-Nov-15 10:00N 51°09' E 001°52'917.8
2017-Nov-15 09:30N 51°03' E 001°42'917.8
2017-Nov-15 09:00N 50°56' E 001°32'6012.8
2017-Nov-15 04:22N 50°20' E 000°17'4 9.6
2017-Nov-15 03:56N 50°19' E 000°11'5 9.1
2017-Nov-15 03:26N 50°18' E 000°04'4 8.7
2017-Nov-15 03:00N 50°17' W 000°02'4 8.3
2017-Nov-15 02:30N 50°16' W 000°08'4 8.0
2017-Nov-15 02:00N 50°15' W 000°14'4 7.8
2017-Nov-15 01:31N 50°14' W 000°20'29 7.3
2017-Nov-14 21:29N 50°07' W 001°04'4 8.3
2017-Nov-14 21:00N 50°06' W 001°10'4 8.9
2017-Nov-14 20:30N 50°05' W 001°17'5 9.6
2017-Nov-14 20:00N 50°03' W 001°24'510.2
2017-Nov-14 19:31N 50°02' W 001°32'611.0
2017-Nov-14 19:00N 50°01' W 001°40'611.3
2017-Nov-14 18:30N 49°59' W 001°49'611.7
2017-Nov-14 18:00N 49°58' W 001°58'612.0
2017-Nov-14 17:29N 49°57' W 002°07'612.0
2017-Nov-14 16:59N 49°55' W 002°16'2311.2
2017-Nov-14 14:54N 49°49' W 002°51'1911.4
2017-Nov-14 13:13N 49°39' W 003°17'1011.1
2017-Nov-14 12:17N 49°35' W 003°31'3210.5
2017-Nov-14 09:16N 49°20' W 004°14'710.2
2017-Nov-14 08:35N 49°17' W 004°23'310.2
2017-Nov-14 08:18N 49°15' W 004°27'410.3
2017-Nov-14 07:55N 49°13' W 004°32'510.2
2017-Nov-14 07:26N 49°10' W 004°38'713.6
2017-Nov-14 06:55N 49°06' W 004°48'816.4
2017-Nov-14 06:26N 49°02' W 004°57'716.3
2017-Nov-14 06:00N 48°59' W 005°07'1616.5
2017-Nov-14 05:02N 48°51' W 005°28'616.6
2017-Nov-14 04:40N 48°47' W 005°35'416.8
2017-Nov-14 04:25N 48°44' W 005°39'716.8
2017-Nov-14 04:00N 48°38' W 005°44'3417.0
2017-Nov-14 01:59N 48°07' W 006°08'817.4
2017-Nov-14 01:30N 47°60' W 006°14'917.7
2017-Nov-14 01:00N 47°52' W 006°20'917.8
2017-Nov-14 00:31N 47°44' W 006°26'917.8
2017-Nov-13 23:59N 47°36' W 006°32'918.0
2017-Nov-13 23:29N 47°28' W 006°39'1117.6
2017-Nov-13 22:52N 47°18' W 006°46'817.3
2017-Nov-13 22:23N 47°11' W 006°52'817.4
2017-Nov-13 21:57N 47°04' W 006°56'69116.4
2017-Nov-12 03:49N 36°17' W 012°23'43715.6
2017-Nov-10 23:47N 29°20' W 014°55'414.5
2017-Nov-10 23:30N 29°16' W 014°56'914.5
2017-Nov-10 22:53N 29°07' W 014°59'514.4
2017-Nov-10 22:30N 29°02' W 015°01'714.3
2017-Nov-10 22:00N 28°55' W 015°03'714.3
2017-Nov-10 21:29N 28°48' W 015°06'714.7
2017-Nov-10 21:01N 28°41' W 015°08'714.6
2017-Nov-10 20:30N 28°34' W 015°11'815.3
2017-Nov-10 20:00N 28°27' W 015°13'815.9
2017-Nov-10 19:30N 28°19' W 015°16'816.0
2017-Nov-10 19:00N 28°12' W 015°18'510.8
2017-Nov-10 18:30N 28°07' W 015°22'2 4.8
2017-Nov-10 18:00N 28°08' W 015°25'0 0.1
2017-Nov-10 17:27N 28°08' W 015°25'0 0.0
2017-Nov-10 16:57N 28°08' W 015°25'0 0.0
2017-Nov-10 16:30N 28°08' W 015°25'0 0.0
2017-Nov-10 16:00N 28°08' W 015°25'0 0.0
2017-Nov-10 15:30N 28°08' W 015°25'0 0.0
2017-Nov-10 15:00N 28°08' W 015°25'0 0.0
2017-Nov-10 14:18N 28°08' W 015°25'0 0.0
2017-Nov-10 13:57N 28°08' W 015°25'0 0.0
2017-Nov-10 13:18N 28°08' W 015°25'0 0.0
2017-Nov-10 13:00N 28°08' W 015°25'0 0.0
2017-Nov-10 12:30N 28°08' W 015°25'0 0.0
2017-Nov-10 12:00N 28°08' W 015°25'0 0.0
2017-Nov-10 11:30N 28°08' W 015°25'0 0.0
2017-Nov-10 11:00N 28°08' W 015°25'0 0.0
2017-Nov-10 10:21N 28°08' W 015°25'0 0.0
2017-Nov-10 09:51N 28°08' W 015°25'0 0.0
2017-Nov-10 09:21N 28°08' W 015°25'0 0.0
2017-Nov-10 08:54N 28°08' W 015°25'0 0.0
2017-Nov-10 08:24N 28°08' W 015°25'0 0.0
2017-Nov-10 07:51N 28°08' W 015°25'0 0.0
2017-Nov-10 07:24N 28°08' W 015°25'0 0.0
2017-Nov-10 06:54N 28°08' W 015°25'0 0.0
2017-Nov-10 06:21N 28°08' W 015°25'0 0.0
2017-Nov-10 05:54N 28°08' W 015°25'0 0.0
2017-Nov-10 05:24N 28°08' W 015°25'0 0.0
2017-Nov-10 04:57N 28°08' W 015°25'0 0.0
2017-Nov-10 04:27N 28°08' W 015°25'0 0.0
2017-Nov-10 03:57N 28°08' W 015°25'0 0.0
2017-Nov-10 03:27N 28°08' W 015°25'0 0.0
2017-Nov-10 02:57N 28°08' W 015°25'0 0.0
2017-Nov-10 02:30N 28°08' W 015°25'0 0.0
2017-Nov-10 02:00N 28°08' W 015°25'0 0.0
2017-Nov-10 01:30N 28°08' W 015°25'0 0.0
2017-Nov-10 01:00N 28°08' W 015°25'0 0.0
2017-Nov-10 00:30N 28°08' W 015°25'  

Dump ship's entire track history